Time;durP1;ratioP1;P1;durP2;ratioP2;P2;SDS_P1;SDS_P2;PMS_P1;PMS_P2;Temp;Humidity;BMP_temperature;BMP_pressure;BME280_temperature;BME280_humidity;BME280_pressure;Samples;Min_cycle;Max_cycle;Signal;HPM_P1;HPM_P2
2023/03/02 00:01:20;;;;;;;12.52;6.43;;;;;;;0.71;67.41;102378.75;4953559;28;20502;-89
2023/03/02 00:03:45;;;;;;;13.27;6.80;;;;;;;0.67;67.17;102374.09;4954742;28;20066;-89
2023/03/02 00:06:11;;;;;;;14.10;6.70;;;;;;;0.65;67.87;102373.06;4970500;28;20054;-90
2023/03/02 00:08:37;;;;;;;12.30;6.60;;;;;;;0.64;68.06;102374.72;4959357;28;20062;-90
2023/03/02 00:11:04;;;;;;;11.82;6.85;;;;;;;0.63;67.86;102382.28;4965852;28;20065;-89
2023/03/02 00:13:31;;;;;;;13.07;6.57;;;;;;;0.60;67.36;102380.34;4965396;28;20038;-90
2023/03/02 00:15:56;;;;;;;16.05;8.40;;;;;;;0.59;67.32;102385.34;4979888;28;20027;-90
2023/03/02 00:18:21;;;;;;;12.88;6.75;;;;;;;0.59;67.52;102387.91;4965509;28;20037;-90
2023/03/02 00:20:47;;;;;;;14.38;6.85;;;;;;;0.58;67.35;102384.47;4965167;28;20035;-89
2023/03/02 00:23:14;;;;;;;11.70;6.63;;;;;;;0.56;67.59;102369.69;4947090;28;20104;-90
2023/03/02 00:25:39;;;;;;;11.10;6.88;;;;;;;0.58;68.01;102378.41;4963618;28;20039;-90
2023/03/02 00:28:04;;;;;;;14.55;7.43;;;;;;;0.57;67.83;102379.19;4963046;28;20026;-90
2023/03/02 00:30:30;;;;;;;14.35;6.63;;;;;;;0.54;67.55;102384.03;4963894;28;20034;-90
2023/03/02 00:32:57;;;;;;;14.15;7.80;;;;;;;0.52;67.46;102383.88;4966547;28;20062;-90
2023/03/02 00:35:22;;;;;;;12.48;6.82;;;;;;;0.50;68.02;102382.88;4947386;28;20034;-90
2023/03/02 00:37:48;;;;;;;13.63;6.78;;;;;;;0.47;68.12;102377.47;4946871;28;20508;-90
2023/03/02 00:40:13;;;;;;;14.00;7.28;;;;;;;0.46;68.08;102383.34;4965526;28;21499;-89
2023/03/02 00:42:39;;;;;;;14.02;6.95;;;;;;;0.46;68.71;102384.25;4946769;28;20048;-90
2023/03/02 00:45:05;;;;;;;13.32;7.22;;;;;;;0.46;68.09;102386.81;4946017;28;20019;-90
2023/03/02 00:47:33;;;;;;;14.18;6.88;;;;;;;0.47;67.70;102388.63;4965373;28;20029;-89
2023/03/02 00:49:58;;;;;;;12.48;6.63;;;;;;;0.46;68.33;102379.09;4964073;28;20027;-90
2023/03/02 00:52:24;;;;;;;13.55;7.03;;;;;;;0.46;68.54;102378.22;4946672;28;20050;-90
2023/03/02 00:54:49;;;;;;;12.75;7.05;;;;;;;0.45;68.02;102382.47;4978272;28;20026;-89
2023/03/02 00:57:14;;;;;;;16.45;7.28;;;;;;;0.45;68.40;102379.91;4965799;28;20034;-89
2023/03/02 00:59:40;;;;;;;13.60;7.28;;;;;;;0.45;68.57;102374.75;4947766;28;20042;-90
2023/03/02 01:02:05;;;;;;;15.40;7.05;;;;;;;0.44;68.43;102377.19;4965419;28;20033;-89
2023/03/02 01:04:40;;;;;;;14.10;7.03;;;;;;;0.40;68.09;102383.69;4946683;28;20038;-90
2023/03/02 01:07:11;;;;;;;15.40;7.13;;;;;;;0.41;68.76;102372.69;4963672;28;20030;-89
2023/03/02 01:09:37;;;;;;;14.23;7.13;;;;;;;0.39;68.31;102376.78;4958916;28;20560;-90
2023/03/02 01:12:04;;;;;;;13.32;6.85;;;;;;;0.40;68.18;102378.56;4956589;28;20031;-89
2023/03/02 01:14:30;;;;;;;15.02;7.25;;;;;;;0.36;68.28;102371.34;4955146;28;20027;-90
2023/03/02 01:16:55;;;;;;;13.95;7.32;;;;;;;0.33;68.29;102366.88;4956779;28;20395;-90
2023/03/02 01:19:20;;;;;;;14.50;7.43;;;;;;;0.29;68.32;102361.31;4937383;28;20114;-90
2023/03/02 01:21:46;;;;;;;12.38;6.82;;;;;;;0.27;69.13;102360.28;4971435;28;21342;-90
2023/03/02 01:24:11;;;;;;;15.07;7.80;;;;;;;0.26;68.71;102364.53;4936371;28;20146;-90
2023/03/02 01:26:37;;;;;;;14.02;7.40;;;;;;;0.25;68.79;102356.72;4957685;28;20797;-89
2023/03/02 01:29:03;;;;;;;14.32;7.43;;;;;;;0.25;69.51;102361.84;4937765;28;20027;-89
2023/03/02 01:31:29;;;;;;;13.10;7.40;;;;;;;0.23;69.80;102360.78;4953541;28;20073;-90
2023/03/02 01:33:54;;;;;;;13.05;7.30;;;;;;;0.21;69.52;102362.31;4952787;28;20166;-88
2023/03/02 01:36:20;;;;;;;15.43;7.45;;;;;;;0.19;69.65;102354.50;4954366;28;20030;-89
2023/03/02 01:38:46;;;;;;;15.48;7.63;;;;;;;0.16;68.81;102352.53;4954414;28;20530;-89
2023/03/02 01:41:11;;;;;;;15.57;7.72;;;;;;;0.14;70.27;102350.59;4956305;28;20027;-89
2023/03/02 01:43:37;;;;;;;14.23;7.40;;;;;;;0.10;69.36;102345.97;4936583;28;20030;-89
2023/03/02 01:46:12;;;;;;;12.20;7.32;;;;;;;0.05;69.18;102345.53;4954305;28;20567;-89
2023/03/02 01:48:46;;;;;;;14.93;7.18;;;;;;;0.05;70.25;102344.66;4945664;28;20031;-89
2023/03/02 01:51:17;;;;;;;16.38;7.70;;;;;;;0.04;70.01;102345.41;4956348;28;20027;-89
2023/03/02 01:53:45;;;;;;;14.02;7.70;;;;;;;0.03;69.98;102344.53;4954687;28;20019;-89
2023/03/02 01:56:18;;;;;;;15.55;7.28;;;;;;;0.02;70.12;102340.16;4954929;28;20105;-89
2023/03/02 01:58:47;;;;;;;13.23;7.72;;;;;;;0.03;70.17;102341.03;4954466;28;20153;-89
2023/03/02 02:01:16;;;;;;;15.40;7.90;;;;;;;0.02;70.02;102337.59;4953696;28;20026;-89
2023/03/02 02:03:44;;;;;;;15.65;8.07;;;;;;;0.02;70.47;102332.47;4956464;28;20129;-89
2023/03/02 02:06:22;;;;;;;15.55;7.40;;;;;;;0.03;70.34;102335.91;4955356;28;20097;-88
2023/03/02 02:08:49;;;;;;;13.27;7.78;;;;;;;0.03;70.25;102330.78;4933155;28;20039;-89
2023/03/02 02:11:15;;;;;;;14.88;7.28;;;;;;;0.01;70.39;102333.22;4943392;28;20027;-89
2023/03/02 02:13:41;;;;;;;14.55;7.53;;;;;;;-0.02;70.76;102327.81;4947103;28;21471;-89
2023/03/02 02:16:07;;;;;;;14.13;7.75;;;;;;;-0.04;70.63;102334.47;4949116;29;20058;-89
2023/03/02 02:18:36;;;;;;;14.43;7.63;;;;;;;-0.09;71.34;102328.91;4948617;29;20031;-89
2023/03/02 02:21:02;;;;;;;13.07;7.75;;;;;;;-0.10;71.11;102334.81;4948246;28;20026;-89
2023/03/02 02:23:50;;;;;;;16.23;8.15;;;;;;;-0.12;71.33;102338.00;4930780;29;20035;-89
2023/03/02 02:26:27;;;;;;;16.10;8.07;;;;;;;-0.19;71.50;102334.88;4947916;28;20050;-89
2023/03/02 02:28:59;;;;;;;14.65;7.75;;;;;;;-0.24;72.06;102330.09;4947818;28;20078;-88
2023/03/02 02:31:35;;;;;;;18.05;8.27;;;;;;;-0.26;72.56;102331.59;4946251;28;20500;-88
2023/03/02 02:34:31;;;;;;;15.60;7.57;;;;;;;-0.31;72.41;102328.63;4948190;29;20038;-89
2023/03/02 02:37:07;;;;;;;16.75;8.10;;;;;;;-0.37;72.39;102320.41;4946380;28;20039;-89
2023/03/02 02:39:36;;;;;;;15.77;7.88;;;;;;;-0.39;72.77;102325.38;4962434;28;20034;-89
2023/03/02 02:42:05;;;;;;;19.27;8.27;;;;;;;-0.41;73.03;102323.44;4929581;29;20498;-89
2023/03/02 02:44:32;;;;;;;16.58;8.60;;;;;;;-0.45;73.67;102318.78;4946002;28;20027;-89
2023/03/02 02:46:57;;;;;;;16.45;8.93;;;;;;;-0.44;73.69;102315.47;4948812;29;20552;-89
2023/03/02 02:49:38;;;;;;;22.45;9.27;;;;;;;-0.44;74.02;102316.38;4947246;28;20042;-89
2023/03/02 02:52:05;;;;;;;18.00;8.82;;;;;;;-0.45;74.44;102313.66;4947549;28;20042;-90
2023/03/02 02:54:33;;;;;;;16.90;8.93;;;;;;;-0.45;74.22;102316.22;4930207;28;20031;-89
2023/03/02 02:57:00;;;;;;;20.05;9.90;;;;;;;-0.43;74.51;102312.16;4930133;29;20035;-89
2023/03/02 02:59:33;;;;;;;21.92;10.10;;;;;;;-0.44;75.03;102307.78;4947778;28;20035;-89
2023/03/02 03:01:59;;;;;;;19.27;9.77;;;;;;;-0.45;75.20;102316.22;4961415;28;20087;-88
2023/03/02 03:04:28;;;;;;;20.15;10.00;;;;;;;-0.47;74.73;102318.66;4947683;29;20043;-89
2023/03/02 03:06:58;;;;;;;21.40;10.15;;;;;;;-0.50;75.40;102313.25;4948866;29;20579;-89
2023/03/02 03:09:24;;;;;;;22.65;11.50;;;;;;;-0.53;75.54;102313.84;4948169;28;20165;-89
2023/03/02 03:11:53;;;;;;;24.55;10.68;;;;;;;-0.54;76.42;102314.63;4947694;28;20436;-89
2023/03/02 03:14:23;;;;;;;25.20;12.27;;;;;;;-0.53;76.45;102318.09;4948972;29;21044;-90
2023/03/02 03:16:49;;;;;;;24.52;11.48;;;;;;;-0.56;76.87;102311.03;4931744;29;20034;-89
2023/03/02 03:19:27;;;;;;;24.20;11.93;;;;;;;-0.55;76.88;102310.28;4947187;28;20039;-89
2023/03/02 03:21:55;;;;;;;27.73;13.02;;;;;;;-0.56;77.13;102313.59;4930018;28;20110;-89
2023/03/02 03:24:22;;;;;;;31.70;14.52;;;;;;;-0.56;77.61;102312.69;4945959;28;20039;-89
2023/03/02 03:26:48;;;;;;;32.20;14.43;;;;;;;-0.57;78.08;102308.31;4947608;29;20051;-89
2023/03/02 03:29:15;;;;;;;31.67;13.95;;;;;;;-0.56;78.20;102298.22;4946728;29;20047;-89
2023/03/02 03:31:41;;;;;;;33.53;14.55;;;;;;;-0.56;79.12;102299.88;4947581;28;20102;-89
2023/03/02 03:34:07;;;;;;;32.20;14.93;;;;;;;-0.57;79.57;102309.22;4948112;28;20549;-89
2023/03/02 03:36:33;;;;;;;33.90;15.93;;;;;;;-0.58;79.24;102303.94;4930634;29;20648;-88
2023/03/02 03:39:00;;;;;;;34.90;16.75;;;;;;;-0.57;80.16;102300.63;4946931;28;20034;-89
2023/03/02 03:41:26;;;;;;;37.70;16.33;;;;;;;-0.58;80.71;102301.38;4947445;29;20053;-89
2023/03/02 03:43:51;;;;;;;39.08;16.13;;;;;;;-0.57;80.52;102298.09;4945826;28;20485;-88
2023/03/02 03:46:17;;;;;;;40.17;17.25;;;;;;;-0.60;81.64;102296.13;4930275;29;20051;-88
2023/03/02 03:48:43;;;;;;;41.20;17.13;;;;;;;-0.62;81.41;102297.66;4930230;29;20118;-89
2023/03/02 03:51:08;;;;;;;40.50;17.00;;;;;;;-0.63;81.68;102300.97;4946781;28;20149;-90
2023/03/02 03:53:34;;;;;;;41.72;17.13;;;;;;;-0.61;82.69;102299.47;4946668;28;20515;-89
2023/03/02 03:56:02;;;;;;;41.22;17.48;;;;;;;-0.60;82.61;102308.94;4946413;28;20035;-90
2023/03/02 03:58:28;;;;;;;36.90;16.60;;;;;;;-0.62;82.28;102310.47;4946746;28;20027;-89
2023/03/02 04:00:53;;;;;;;40.00;17.70;;;;;;;-0.63;81.77;102316.34;4947432;29;21462;-89
2023/03/02 04:03:19;;;;;;;41.00;17.40;;;;;;;-0.67;81.94;102308.22;4945993;28;20117;-90
2023/03/02 04:05:45;;;;;;;40.53;17.92;;;;;;;-0.68;81.87;102316.66;4945677;29;20030;-89
2023/03/02 04:08:11;;;;;;;37.28;17.63;;;;;;;-0.69;81.56;102314.88;4949899;28;20138;-88
2023/03/02 04:10:36;;;;;;;45.83;18.50;;;;;;;-0.70;82.71;102311.41;4980202;28;20105;-89
2023/03/02 04:13:01;;;;;;;44.33;17.90;;;;;;;-0.72;83.03;102315.50;4967355;28;21434;-89
2023/03/02 04:15:27;;;;;;;42.78;18.35;;;;;;;-0.73;82.80;102318.81;4966296;28;20392;-89
2023/03/02 04:17:52;;;;;;;42.75;18.15;;;;;;;-0.72;83.19;102311.25;4965550;28;20130;-89
2023/03/02 04:20:19;;;;;;;43.63;17.73;;;;;;;-0.71;83.43;102307.97;4966554;28;20027;-89
2023/03/02 04:22:48;;;;;;;44.55;17.98;;;;;;;-0.71;83.12;102307.97;4963134;28;20039;-90
2023/03/02 04:25:18;;;;;;;42.78;18.15;;;;;;;-0.71;83.40;102313.06;4948077;28;20050;-89
2023/03/02 04:27:45;;;;;;;38.92;17.42;;;;;;;-0.74;83.19;102307.69;4965913;28;20030;-89
2023/03/02 04:30:12;;;;;;;40.03;17.70;;;;;;;-0.74;82.76;102307.69;4964523;28;20816;-89
2023/03/02 04:32:37;;;;;;;39.80;18.55;;;;;;;-0.73;83.19;102309.44;4966081;28;20134;-89
2023/03/02 04:35:03;;;;;;;42.55;17.55;;;;;;;-0.73;83.97;102313.69;4946883;28;20094;-89
2023/03/02 04:37:29;;;;;;;44.05;17.83;;;;;;;-0.74;83.72;102305.13;4947319;28;20030;-88
2023/03/02 04:39:54;;;;;;;42.35;18.60;;;;;;;-0.75;84.41;102310.09;4965531;28;20035;-89
2023/03/02 04:42:20;;;;;;;42.00;17.40;;;;;;;-0.75;84.82;102310.97;4962813;28;20085;-89
2023/03/02 04:44:46;;;;;;;40.97;17.77;;;;;;;-0.75;84.21;102308.44;4947919;28;20038;-89
2023/03/02 04:47:11;;;;;;;42.35;18.17;;;;;;;-0.76;84.24;102313.41;4965841;28;20054;-89
2023/03/02 04:49:37;;;;;;;42.33;16.80;;;;;;;-0.77;84.48;102312.50;4965938;28;20031;-89
2023/03/02 04:52:03;;;;;;;37.80;17.55;;;;;;;-0.78;84.52;102300.47;4948544;28;20046;-89
2023/03/02 04:54:28;;;;;;;41.13;17.17;;;;;;;-0.78;84.25;102304.66;4963531;28;20539;-89
2023/03/02 04:56:54;;;;;;;39.88;17.48;;;;;;;-0.81;84.18;102301.81;4965189;28;20027;-88
2023/03/02 04:59:24;;;;;;;40.15;17.85;;;;;;;-0.81;84.98;102304.38;4964881;28;20037;-89
2023/03/02 05:01:50;;;;;;;42.13;17.70;;;;;;;-0.80;84.39;102298.50;4965493;28;20062;-89
2023/03/02 05:04:16;;;;;;;44.60;17.75;;;;;;;-0.80;84.37;102303.63;4965734;28;20030;-89
2023/03/02 05:06:42;;;;;;;41.45;17.85;;;;;;;-0.80;84.42;102307.09;4966363;28;20033;-89
2023/03/02 05:09:07;;;;;;;40.22;17.20;;;;;;;-0.81;84.31;102309.50;4954059;28;20043;-89
2023/03/02 05:11:33;;;;;;;42.67;17.90;;;;;;;-0.84;84.65;102312.69;4962892;28;20492;-90
2023/03/02 05:14:01;;;;;;;43.13;16.90;;;;;;;-0.83;84.33;102314.47;4946674;28;20023;-89
2023/03/02 05:16:30;;;;;;;42.40;17.80;;;;;;;-0.82;83.76;102315.41;4944919;28;20985;-90
2023/03/02 05:18:56;;;;;;;42.47;18.75;;;;;;;-0.83;83.98;102316.16;4947274;28;20086;-89
2023/03/02 05:21:22;;;;;;;40.58;17.35;;;;;;;-0.88;84.83;102319.16;4962262;28;20031;-90
2023/03/02 05:23:49;;;;;;;42.75;18.00;;;;;;;-0.93;84.92;102312.75;4946615;28;20035;-90
2023/03/02 05:26:15;;;;;;;43.05;17.73;;;;;;;-0.93;85.07;102317.84;4946321;28;20089;-90
2023/03/02 05:28:42;;;;;;;40.92;17.42;;;;;;;-0.95;85.39;102316.78;4962269;28;20031;-89
2023/03/02 05:31:07;;;;;;;42.03;17.80;;;;;;;-0.96;85.03;102312.44;4946834;28;20508;-89
2023/03/02 05:33:33;;;;;;;47.78;19.33;;;;;;;-0.96;85.58;102308.97;4947412;28;20053;-90
2023/03/02 05:35:59;;;;;;;51.20;20.02;;;;;;;-0.98;85.54;102308.84;4962178;28;20034;-89
2023/03/02 05:38:26;;;;;;;46.30;19.00;;;;;;;-0.98;85.64;102305.41;4961353;28;20035;-90
2023/03/02 05:40:51;;;;;;;44.63;18.45;;;;;;;-1.01;85.27;102308.56;4960216;28;20503;-89
2023/03/02 05:43:20;;;;;;;52.75;19.15;;;;;;;-1.04;85.64;102308.28;4946696;28;20015;-90
2023/03/02 05:45:46;;;;;;;50.20;20.25;;;;;;;-1.06;85.77;102314.88;4946876;28;20027;-89
2023/03/02 05:48:12;;;;;;;43.92;18.88;;;;;;;-1.08;85.84;102311.28;4948295;28;20106;-90
2023/03/02 05:50:38;;;;;;;45.67;19.35;;;;;;;-1.09;86.26;102317.16;4964631;28;20022;-89
2023/03/02 05:53:03;;;;;;;45.45;19.88;;;;;;;-1.09;86.16;102317.16;4950683;28;20157;-90
2023/03/02 05:55:29;;;;;;;51.38;20.30;;;;;;;-1.09;86.40;102310.38;4964791;28;20038;-89
2023/03/02 05:57:54;;;;;;;50.45;19.70;;;;;;;-1.06;85.84;102313.25;4950474;28;20118;-89
2023/03/02 06:00:20;;;;;;;48.72;19.10;;;;;;;-1.06;86.02;102309.75;4948312;28;20051;-89
2023/03/02 06:02:46;;;;;;;52.95;19.77;;;;;;;-1.10;86.24;102311.16;4949659;28;20118;-89
2023/03/02 06:05:15;;;;;;;47.63;19.15;;;;;;;-1.11;86.35;102314.47;4964958;28;20031;-90
2023/03/02 06:07:40;;;;;;;47.47;18.85;;;;;;;-1.12;86.83;102314.31;4951676;28;20055;-89
2023/03/02 06:10:07;;;;;;;46.65;19.33;;;;;;;-1.14;86.76;102306.50;4967241;28;20144;-90
2023/03/02 06:12:33;;;;;;;48.78;19.52;;;;;;;-1.15;87.29;102297.00;4968621;28;20487;-89
2023/03/02 06:14:58;;;;;;;52.55;20.63;;;;;;;-1.14;87.07;102313.28;4968814;28;20110;-89
2023/03/02 06:17:25;;;;;;;48.53;19.33;;;;;;;-1.14;86.98;102318.41;4950642;28;20118;-88
2023/03/02 06:19:50;;;;;;;50.78;19.98;;;;;;;-1.14;86.89;102316.72;4967325;28;20037;-88
2023/03/02 06:22:16;;;;;;;53.20;19.75;;;;;;;-1.14;86.75;102319.28;4968583;28;20031;-89
2023/03/02 06:24:41;;;;;;;53.72;19.58;;;;;;;-1.13;87.09;102315.06;4968090;28;20073;-89
2023/03/02 06:27:07;;;;;;;49.47;19.65;;;;;;;-1.13;87.78;102315.06;4968464;28;20062;-89
2023/03/02 06:29:32;;;;;;;52.45;20.45;;;;;;;-1.14;87.83;102323.50;4948734;28;20470;-89
2023/03/02 06:31:57;;;;;;;52.33;19.13;;;;;;;-1.12;88.04;102316.88;4967666;28;20038;-88
2023/03/02 06:34:23;;;;;;;55.08;20.70;;;;;;;-1.14;87.86;102319.28;4965652;28;20169;-88
2023/03/02 06:36:48;;;;;;;52.63;20.73;;;;;;;-1.13;87.59;102325.28;4967311;28;20057;-89
2023/03/02 06:39:16;;;;;;;50.30;19.33;;;;;;;-1.13;87.93;102317.63;4967283;28;20038;-89
2023/03/02 06:41:43;;;;;;;51.20;18.85;;;;;;;-1.14;88.16;102321.84;4968438;28;20031;-89
2023/03/02 06:44:08;;;;;;;51.10;18.83;;;;;;;-1.18;87.55;102322.31;4949319;28;20038;-89
2023/03/02 06:46:33;;;;;;;53.13;20.08;;;;;;;-1.17;88.11;102329.22;4951001;28;20035;-89
2023/03/02 06:48:59;;;;;;;53.78;19.27;;;;;;;-1.13;88.12;102332.97;4967518;28;20026;-89
2023/03/02 06:51:24;;;;;;;53.55;20.67;;;;;;;-1.13;88.05;102332.97;4968608;28;20045;-89
2023/03/02 06:53:49;;;;;;;48.83;18.80;;;;;;;-1.12;88.21;102329.66;4968219;28;20038;-89
2023/03/02 06:56:15;;;;;;;49.25;20.17;;;;;;;-1.11;88.27;102339.16;4968027;28;20132;-90
2023/03/02 06:58:40;;;;;;;52.08;20.00;;;;;;;-1.10;88.23;102333.25;4966454;28;20086;-91
2023/03/02 07:01:06;;;;;;;52.53;20.08;;;;;;;-1.08;88.32;102332.66;4968182;28;20117;-89
2023/03/02 07:03:32;;;;;;;54.55;20.20;;;;;;;-1.07;88.15;102331.00;4968320;28;20035;-90
2023/03/02 07:05:57;;;;;;;54.83;20.63;;;;;;;-1.05;88.16;102334.59;4967298;28;20027;-89
2023/03/02 07:08:22;;;;;;;53.83;19.20;;;;;;;-1.07;88.54;102331.00;4960849;28;20113;-89
2023/03/02 07:10:48;;;;;;;51.80;19.73;;;;;;;-1.04;88.54;102338.97;4931818;29;20046;-90
2023/03/02 07:13:13;;;;;;;48.15;19.52;;;;;;;-1.01;88.80;102339.25;4949211;29;20061;-89
2023/03/02 07:15:39;;;;;;;54.85;20.08;;;;;;;-0.97;88.80;102343.91;4949071;28;20038;-89
2023/03/02 07:18:04;;;;;;;53.85;20.33;;;;;;;-0.98;88.24;102349.78;4948782;28;20035;-89
2023/03/02 07:20:30;;;;;;;50.55;20.08;;;;;;;-0.96;89.01;102348.25;4947965;28;20053;-89
2023/03/02 07:22:56;;;;;;;52.53;20.55;;;;;;;-0.93;89.51;102345.09;4948481;29;20031;-89
2023/03/02 07:25:21;;;;;;;49.50;19.58;;;;;;;-0.91;89.13;102343.59;4946961;28;20030;-89
2023/03/02 07:27:47;;;;;;;48.63;19.10;;;;;;;-0.86;89.01;102347.47;4948394;29;20074;-88
2023/03/02 07:30:13;;;;;;;53.67;19.75;;;;;;;-0.84;88.64;102343.41;4948491;28;20058;-87
2023/03/02 07:32:39;;;;;;;51.25;20.42;;;;;;;-0.80;88.75;102342.03;4956894;28;20027;-88
2023/03/02 07:35:05;;;;;;;48.97;19.70;;;;;;;-0.78;88.70;102345.59;4960641;29;20063;-88
2023/03/02 07:37:30;;;;;;;49.35;18.83;;;;;;;-0.76;88.93;102347.56;4961862;29;20039;-88
2023/03/02 07:39:55;;;;;;;50.90;20.52;;;;;;;-0.73;88.87;102340.16;4963432;28;20019;-88
2023/03/02 07:42:20;;;;;;;50.25;20.02;;;;;;;-0.68;88.87;102350.84;4937873;29;20031;-89
2023/03/02 07:44:46;;;;;;;55.75;20.67;;;;;;;-0.64;89.16;102347.78;4947453;29;20040;-88
2023/03/02 07:47:12;;;;;;;50.08;19.10;;;;;;;-0.60;88.82;102343.88;4946015;28;20027;-89
2023/03/02 07:49:37;;;;;;;56.47;20.15;;;;;;;-0.58;89.01;102355.16;4946578;29;20208;-88
2023/03/02 07:52:03;;;;;;;49.88;19.60;;;;;;;-0.56;88.85;102357.09;4947407;28;20089;-89
2023/03/02 07:54:29;;;;;;;51.40;20.50;;;;;;;-0.53;88.44;102349.69;4946235;28;20963;-89
2023/03/02 07:56:55;;;;;;;53.55;20.20;;;;;;;-0.49;88.38;102350.91;4930790;28;20504;-89
2023/03/02 07:59:21;;;;;;;50.58;18.83;;;;;;;-0.46;88.69;102340.94;4947378;28;20031;-90
2023/03/02 08:01:46;;;;;;;47.63;18.98;;;;;;;-0.43;88.21;102346.34;4947227;28;20030;-90
2023/03/02 08:04:11;;;;;;;51.03;19.40;;;;;;;-0.36;88.19;102345.25;4946404;28;20572;-90
2023/03/02 08:06:37;;;;;;;51.40;20.08;;;;;;;-0.33;88.63;102342.97;4947268;29;20723;-90
2023/03/02 08:09:03;;;;;;;50.72;19.55;;;;;;;-0.30;87.83;102340.69;4939949;28;20085;-89
2023/03/02 08:11:29;;;;;;;50.13;20.67;;;;;;;-0.24;88.75;102336.13;4980392;28;20070;-89
2023/03/02 08:13:54;;;;;;;51.17;19.27;;;;;;;-0.16;88.20;102341.94;4965809;28;20034;-90
2023/03/02 08:16:20;;;;;;;52.13;20.90;;;;;;;-0.10;88.05;102341.59;4966262;28;20022;-89
2023/03/02 08:18:46;;;;;;;52.00;19.63;;;;;;;0.01;87.68;102340.91;4964635;28;20041;-91
2023/03/02 08:21:18;;;;;;;48.45;20.45;;;;;;;0.10;87.40;102339.19;4948209;28;20035;-89
2023/03/02 08:23:43;;;;;;;47.25;18.45;;;;;;;0.23;87.92;102335.16;4979901;28;20037;-89
2023/03/02 08:26:09;;;;;;;46.30;17.75;;;;;;;0.36;86.50;102335.47;4966356;28;20026;-89
2023/03/02 08:28:35;;;;;;;46.42;18.42;;;;;;;0.51;86.64;102341.06;4980486;28;20499;-89
2023/03/02 08:31:02;;;;;;;46.45;18.65;;;;;;;0.65;85.84;102339.72;4966139;28;20031;-90
2023/03/02 08:33:29;;;;;;;47.85;19.23;;;;;;;0.75;85.26;102346.56;4964866;28;20524;-89
2023/03/02 08:36:02;;;;;;;48.92;19.20;;;;;;;0.83;84.93;102349.03;4948589;28;20027;-90
2023/03/02 08:38:29;;;;;;;47.53;18.75;;;;;;;0.95;84.20;102338.03;4964008;28;20034;-90
2023/03/02 08:40:55;;;;;;;43.22;17.20;;;;;;;1.08;83.69;102343.44;4947961;28;20120;-90
2023/03/02 08:43:22;;;;;;;42.80;18.25;;;;;;;1.19;83.38;102342.72;4979591;28;20089;-90
2023/03/02 08:45:58;;;;;;;43.33;18.25;;;;;;;1.26;81.94;102343.22;4947437;28;20034;-89
2023/03/02 08:48:25;;;;;;;43.08;18.20;;;;;;;1.34;82.01;102342.22;4965766;28;20077;-90
2023/03/02 08:50:55;;;;;;;41.50;18.08;;;;;;;1.44;81.75;102339.66;4966394;28;20034;-90
2023/03/02 08:53:21;;;;;;;40.88;17.45;;;;;;;1.54;81.60;102339.66;4966615;28;20042;-89
2023/03/02 08:55:46;;;;;;;41.42;17.73;;;;;;;1.66;81.06;102341.47;4965245;28;20113;-90
2023/03/02 08:58:11;;;;;;;39.40;15.23;;;;;;;1.78;79.97;102331.31;4964647;28;20046;-90
2023/03/02 09:00:36;;;;;;;37.40;15.88;;;;;;;1.84;78.87;102330.16;4962781;28;20027;-90
2023/03/02 09:03:02;;;;;;;36.85;16.75;;;;;;;1.90;78.96;102325.50;4965019;28;20050;-91
2023/03/02 09:05:27;;;;;;;37.05;15.38;;;;;;;2.01;78.31;102326.38;4948619;28;20057;-90
2023/03/02 09:07:52;;;;;;;37.92;16.70;;;;;;;2.09;78.52;102325.34;4946734;28;20022;-91
2023/03/02 09:10:18;;;;;;;38.30;16.30;;;;;;;2.17;77.37;102315.72;4930252;29;20039;-90
2023/03/02 09:12:43;;;;;;;38.40;15.95;;;;;;;2.25;77.00;102322.34;4947424;29;20031;-91
2023/03/02 09:15:09;;;;;;;33.88;15.75;;;;;;;2.33;76.68;102320.44;4946530;28;20603;-91
2023/03/02 09:17:34;;;;;;;36.00;15.93;;;;;;;2.42;75.85;102313.44;4946529;28;20556;-91
2023/03/02 09:20:00;;;;;;;42.05;16.23;;;;;;;2.49;75.59;102322.56;4947065;28;20630;-91
2023/03/02 09:22:25;;;;;;;34.05;14.50;;;;;;;2.54;73.92;102321.22;4949567;28;20558;-91
2023/03/02 09:24:50;;;;;;;35.20;15.85;;;;;;;2.62;75.07;102321.84;4950682;28;20034;-90
2023/03/02 09:27:16;;;;;;;36.47;15.98;;;;;;;2.72;74.72;102318.31;4951361;28;20392;-90
2023/03/02 09:29:41;;;;;;;31.95;15.02;;;;;;;2.80;74.19;102314.69;4951069;29;20050;-89
2023/03/02 09:32:06;;;;;;;35.47;15.63;;;;;;;2.89;74.46;102320.53;4950871;28;20473;-90
2023/03/02 09:34:32;;;;;;;34.90;15.45;;;;;;;2.94;71.78;102316.66;4951224;28;20090;-89
2023/03/02 09:36:57;;;;;;;32.75;14.70;;;;;;;2.98;72.48;102320.38;4950214;29;20035;-89
2023/03/02 09:39:22;;;;;;;29.10;13.48;;;;;;;3.05;71.78;102311.47;4951260;29;20055;-90
2023/03/02 09:42:02;;;;;;;33.63;14.77;;;;;;;3.15;72.24;102319.13;4948626;29;20039;-90
2023/03/02 09:44:36;;;;;;;34.88;15.35;;;;;;;3.26;71.79;102313.13;4950379;28;20039;-90
2023/03/02 09:47:34;;;;;;;32.53;14.45;;;;;;;3.43;71.70;102308.34;4951030;28;20497;-95
2023/03/02 09:50:10;;;;;;;30.20;13.75;;;;;;;3.54;70.31;102299.75;4941800;28;20035;-92
2023/03/02 09:52:43;;;;;;;32.83;13.40;;;;;;;3.57;69.58;102301.69;4950820;28;20497;-94
2023/03/02 09:55:16;;;;;;;28.30;14.23;;;;;;;3.69;69.45;102299.13;4951413;28;20034;-92
2023/03/02 09:57:42;;;;;;;30.63;14.02;;;;;;;3.83;68.37;102301.03;4938982;29;20062;-94
2023/03/02 10:00:25;;;;;;;29.38;13.95;;;;;;;3.99;69.46;102300.50;4952523;28;20076;-92
2023/03/02 10:02:58;;;;;;;29.58;13.32;;;;;;;4.13;68.78;102299.84;4934619;29;20648;-93
2023/03/02 10:05:30;;;;;;;31.38;14.63;;;;;;;4.27;69.01;102298.28;4948430;28;20532;-92
2023/03/02 10:07:55;;;;;;;29.45;14.07;;;;;;;4.32;66.61;102296.03;4950479;28;20050;-90
2023/03/02 10:11:00;;;;;;;26.50;13.30;;;;;;;4.43;67.69;102300.28;4948753;28;20489;-91
2023/03/02 10:13:28;;;;;;;29.60;13.15;;;;;;;4.57;66.03;102297.78;4950105;28;20038;-92
2023/03/02 10:16:13;;;;;;;26.27;12.57;;;;;;;4.63;63.41;102298.22;4948100;28;20122;-89
2023/03/02 10:18:56;;;;;;;26.85;12.45;;;;;;;4.67;64.18;102303.69;4948944;28;20039;-90
2023/03/02 10:21:26;;;;;;;21.98;11.18;;;;;;;4.78;62.14;102296.72;4949886;29;20035;-90
2023/03/02 10:24:04;;;;;;;;;;;;;;;4.90;65.73;102304.44;4949004;28;20055;-90
2023/03/02 10:26:41;;;;;;;23.02;10.45;;;;;;;4.99;62.89;102299.00;4948698;28;19969;-88
2023/03/02 10:29:16;;;;;;;25.80;12.25;;;;;;;5.05;61.29;102300.34;4947730;28;20792;-89
2023/03/02 10:31:42;;;;;;;25.65;11.20;;;;;;;5.11;61.38;102296.38;4950091;29;20035;-91
2023/03/02 10:34:11;;;;;;;23.33;11.27;;;;;;;5.14;60.29;102294.00;4947777;28;20050;-89
2023/03/02 10:36:41;;;;;;;22.67;11.13;;;;;;;5.19;60.78;102296.13;4931030;29;20101;-90
2023/03/02 10:39:12;;;;;;;28.00;12.80;;;;;;;5.33;60.77;102291.91;4948138;29;20035;-89
2023/03/02 10:41:43;;;;;;;22.60;11.77;;;;;;;5.53;60.95;102289.75;4932194;29;20031;-90
2023/03/02 10:44:20;;;;;;;24.27;11.88;;;;;;;5.73;59.62;102293.69;4950138;29;20493;-89
2023/03/02 10:46:46;;;;;;;21.17;10.65;;;;;;;5.80;57.12;102290.72;4947873;28;20038;-90
2023/03/02 10:49:35;;;;;;;22.48;11.80;;;;;;;5.79;57.42;102277.69;4946493;28;20389;-89
2023/03/02 10:52:03;;;;;;;22.55;10.90;;;;;;;5.88;56.58;102283.44;4951298;28;20085;-93
2023/03/02 10:54:33;;;;;;;22.30;11.35;;;;;;;5.93;56.61;102279.50;4954192;28;20271;-96
2023/03/02 10:57:04;;;;;;;27.85;12.00;;;;;;;6.02;57.55;102280.13;4963164;28;20083;-96
2023/03/02 10:59:42;;;;;;;23.83;11.27;;;;;;;6.15;59.48;102279.22;5194488;23;20825;-89
2023/03/02 11:02:26;;;;;;;25.05;12.80;;;;;;;6.37;59.78;102276.34;5038152;23;20064;-93
2023/03/02 11:05:19;;;;;;;25.85;12.50;;;;;;;6.65;60.54;102283.25;5030919;28;20026;-93
2023/03/02 11:08:01;;;;;;;24.15;12.15;;;;;;;6.85;58.64;102273.22;5016524;28;20478;-94
2023/03/02 11:10:26;;;;;;;24.92;12.65;;;;;;;7.00;58.60;102266.41;5012344;28;20120;-93
2023/03/02 11:12:55;;;;;;;25.77;12.50;;;;;;;7.18;59.69;102263.16;5013401;28;20112;-95
2023/03/02 11:18:00;;;;;;;25.98;12.48;;;;;;;7.40;55.93;102265.31;5045283;23;20518;-96
2023/03/02 11:20:32;;;;;;;23.48;12.48;;;;;;;7.42;56.88;102259.41;5020956;28;20560;-95